sensor_id;sensor_type;location;lat;lon;timestamp;P1;durP1;ratioP1;P2;durP2;ratioP2
82328;SDS011;72321;56.908;60.608;2023-09-08T01:27:32;12.23;;;5.43;;
82328;SDS011;72321;56.908;60.608;2023-09-08T01:29:59;13.63;;;6.72;;
82328;SDS011;72321;56.908;60.608;2023-09-08T01:34:50;10.30;;;5.13;;
82328;SDS011;72321;56.908;60.608;2023-09-08T01:37:15;7.70;;;5.35;;
82328;SDS011;72321;56.908;60.608;2023-09-08T01:39:41;12.95;;;5.35;;
82328;SDS011;72321;56.908;60.608;2023-09-08T01:42:06;9.48;;;5.80;;
82328;SDS011;72321;56.908;60.608;2023-09-08T01:44:31;9.10;;;4.82;;
82328;SDS011;72321;56.908;60.608;2023-09-08T01:46:57;9.10;;;5.13;;
82328;SDS011;72321;56.908;60.608;2023-09-08T01:49:23;10.27;;;5.65;;
82328;SDS011;72321;56.908;60.608;2023-09-08T01:51:49;14.30;;;6.22;;
82328;SDS011;72321;56.908;60.608;2023-09-08T01:54:15;11.65;;;5.97;;
82328;SDS011;72321;56.908;60.608;2023-09-08T01:56:41;12.43;;;5.82;;
82328;SDS011;72321;56.908;60.608;2023-09-08T01:59:06;10.88;;;4.90;;
82328;SDS011;72321;56.908;60.608;2023-09-08T02:01:31;10.80;;;5.05;;
82328;SDS011;72321;56.908;60.608;2023-09-08T02:03:57;12.20;;;6.28;;
82328;SDS011;72321;56.908;60.608;2023-09-08T02:06:22;10.27;;;5.93;;
82328;SDS011;72321;56.908;60.608;2023-09-08T02:08:47;9.98;;;6.03;;
82328;SDS011;72321;56.908;60.608;2023-09-08T02:11:13;11.55;;;6.00;;
82328;SDS011;72321;56.908;60.608;2023-09-08T02:13:38;10.48;;;5.53;;
82328;SDS011;72321;56.908;60.608;2023-09-08T02:16:04;11.07;;;5.88;;
82328;SDS011;72321;56.908;60.608;2023-09-08T02:18:29;12.50;;;5.30;;
82328;SDS011;72321;56.908;60.608;2023-09-08T02:20:55;11.88;;;5.55;;
82328;SDS011;72321;56.908;60.608;2023-09-08T02:23:20;10.90;;;5.72;;
82328;SDS011;72321;56.908;60.608;2023-09-08T02:25:45;14.90;;;5.82;;
82328;SDS011;72321;56.908;60.608;2023-09-08T02:28:11;11.43;;;6.75;;
82328;SDS011;72321;56.908;60.608;2023-09-08T02:30:36;13.77;;;6.10;;
82328;SDS011;72321;56.908;60.608;2023-09-08T02:33:02;15.45;;;6.72;;
82328;SDS011;72321;56.908;60.608;2023-09-08T02:35:28;11.40;;;5.93;;
82328;SDS011;72321;56.908;60.608;2023-09-08T02:37:53;9.57;;;6.22;;
82328;SDS011;72321;56.908;60.608;2023-09-08T02:40:18;12.63;;;5.67;;
82328;SDS011;72321;56.908;60.608;2023-09-08T02:42:45;9.98;;;5.55;;
82328;SDS011;72321;56.908;60.608;2023-09-08T02:45:11;12.50;;;5.60;;
82328;SDS011;72321;56.908;60.608;2023-09-08T02:47:36;10.73;;;5.85;;
82328;SDS011;72321;56.908;60.608;2023-09-08T02:50:01;11.38;;;7.15;;
82328;SDS011;72321;56.908;60.608;2023-09-08T02:52:28;15.52;;;5.93;;
82328;SDS011;72321;56.908;60.608;2023-09-08T02:54:53;14.82;;;6.28;;
82328;SDS011;72321;56.908;60.608;2023-09-08T02:57:19;9.20;;;5.67;;
82328;SDS011;72321;56.908;60.608;2023-09-08T02:59:48;11.23;;;6.15;;
82328;SDS011;72321;56.908;60.608;2023-09-08T03:02:13;13.35;;;6.43;;
82328;SDS011;72321;56.908;60.608;2023-09-08T03:04:39;12.60;;;6.20;;
82328;SDS011;72321;56.908;60.608;2023-09-08T03:07:04;9.18;;;4.97;;
82328;SDS011;72321;56.908;60.608;2023-09-08T03:09:29;15.32;;;5.88;;
82328;SDS011;72321;56.908;60.608;2023-09-08T03:11:55;13.18;;;6.15;;
82328;SDS011;72321;56.908;60.608;2023-09-08T03:14:20;12.10;;;5.05;;
82328;SDS011;72321;56.908;60.608;2023-09-08T03:16:45;10.18;;;6.10;;
82328;SDS011;72321;56.908;60.608;2023-09-08T03:19:11;9.55;;;5.38;;
82328;SDS011;72321;56.908;60.608;2023-09-08T03:21:36;13.20;;;6.73;;
82328;SDS011;72321;56.908;60.608;2023-09-08T03:24:02;12.07;;;5.85;;
82328;SDS011;72321;56.908;60.608;2023-09-08T03:26:27;12.20;;;5.93;;
82328;SDS011;72321;56.908;60.608;2023-09-08T03:28:52;19.50;;;6.20;;
82328;SDS011;72321;56.908;60.608;2023-09-08T03:31:18;12.18;;;7.13;;
82328;SDS011;72321;56.908;60.608;2023-09-08T03:33:43;12.13;;;6.60;;
82328;SDS011;72321;56.908;60.608;2023-09-08T03:36:08;19.05;;;6.55;;
82328;SDS011;72321;56.908;60.608;2023-09-08T03:38:34;13.50;;;5.80;;
82328;SDS011;72321;56.908;60.608;2023-09-08T03:41:02;11.95;;;5.60;;
82328;SDS011;72321;56.908;60.608;2023-09-08T03:43:27;8.23;;;4.97;;
82328;SDS011;72321;56.908;60.608;2023-09-08T03:45:52;8.90;;;5.57;;
82328;SDS011;72321;56.908;60.608;2023-09-08T03:48:18;17.90;;;6.18;;
82328;SDS011;72321;56.908;60.608;2023-09-08T03:50:43;13.52;;;5.55;;
82328;SDS011;72321;56.908;60.608;2023-09-08T03:53:10;15.65;;;5.40;;
82328;SDS011;72321;56.908;60.608;2023-09-08T03:55:36;14.80;;;6.55;;
82328;SDS011;72321;56.908;60.608;2023-09-08T03:58:01;10.70;;;5.57;;
82328;SDS011;72321;56.908;60.608;2023-09-08T04:00:27;12.27;;;5.93;;
82328;SDS011;72321;56.908;60.608;2023-09-08T04:02:52;10.70;;;5.68;;
82328;SDS011;72321;56.908;60.608;2023-09-08T04:05:18;10.20;;;5.18;;
82328;SDS011;72321;56.908;60.608;2023-09-08T04:07:46;9.13;;;5.05;;
82328;SDS011;72321;56.908;60.608;2023-09-08T04:10:12;9.95;;;5.45;;
82328;SDS011;72321;56.908;60.608;2023-09-08T04:12:38;16.17;;;6.20;;
82328;SDS011;72321;56.908;60.608;2023-09-08T04:17:29;8.00;;;5.13;;
82328;SDS011;72321;56.908;60.608;2023-09-08T04:19:54;14.23;;;5.60;;
82328;SDS011;72321;56.908;60.608;2023-09-08T04:22:19;8.30;;;4.70;;
82328;SDS011;72321;56.908;60.608;2023-09-08T04:24:45;12.70;;;5.40;;
82328;SDS011;72321;56.908;60.608;2023-09-08T04:27:10;10.73;;;5.93;;
82328;SDS011;72321;56.908;60.608;2023-09-08T04:29:35;10.10;;;5.40;;
82328;SDS011;72321;56.908;60.608;2023-09-08T04:32:01;9.60;;;5.45;;
82328;SDS011;72321;56.908;60.608;2023-09-08T04:34:34;8.20;;;4.30;;
82328;SDS011;72321;56.908;60.608;2023-09-08T04:36:59;13.05;;;4.88;;
82328;SDS011;72321;56.908;60.608;2023-09-08T04:39:25;9.25;;;5.47;;
82328;SDS011;72321;56.908;60.608;2023-09-08T04:41:50;7.85;;;5.00;;
82328;SDS011;72321;56.908;60.608;2023-09-08T04:44:15;10.55;;;4.65;;
82328;SDS011;72321;56.908;60.608;2023-09-08T04:46:41;9.95;;;4.82;;
82328;SDS011;72321;56.908;60.608;2023-09-08T04:49:06;9.85;;;5.03;;
82328;SDS011;72321;56.908;60.608;2023-09-08T04:51:31;10.63;;;4.80;;
82328;SDS011;72321;56.908;60.608;2023-09-08T04:53:57;9.02;;;4.45;;
82328;SDS011;72321;56.908;60.608;2023-09-08T04:56:22;8.10;;;4.50;;
82328;SDS011;72321;56.908;60.608;2023-09-08T04:58:48;8.10;;;4.40;;
82328;SDS011;72321;56.908;60.608;2023-09-08T05:01:13;13.07;;;4.78;;
82328;SDS011;72321;56.908;60.608;2023-09-08T05:03:38;8.50;;;4.82;;
82328;SDS011;72321;56.908;60.608;2023-09-08T05:06:04;12.15;;;4.82;;
82328;SDS011;72321;56.908;60.608;2023-09-08T05:08:29;10.82;;;4.72;;
82328;SDS011;72321;56.908;60.608;2023-09-08T05:13:20;9.90;;;5.10;;
82328;SDS011;72321;56.908;60.608;2023-09-08T05:15:51;9.45;;;4.57;;
82328;SDS011;72321;56.908;60.608;2023-09-08T05:18:17;9.15;;;4.85;;
82328;SDS011;72321;56.908;60.608;2023-09-08T05:20:42;8.25;;;4.13;;
82328;SDS011;72321;56.908;60.608;2023-09-08T05:23:08;9.85;;;4.90;;
82328;SDS011;72321;56.908;60.608;2023-09-08T05:25:33;10.80;;;4.65;;
82328;SDS011;72321;56.908;60.608;2023-09-08T05:27:58;6.80;;;3.80;;
82328;SDS011;72321;56.908;60.608;2023-09-08T05:30:25;7.68;;;3.53;;
82328;SDS011;72321;56.908;60.608;2023-09-08T05:32:50;11.18;;;4.35;;
82328;SDS011;72321;56.908;60.608;2023-09-08T05:37:41;7.90;;;4.00;;
82328;SDS011;72321;56.908;60.608;2023-09-08T05:40:06;7.20;;;3.90;;
82328;SDS011;72321;56.908;60.608;2023-09-08T05:42:32;6.97;;;4.05;;
82328;SDS011;72321;56.908;60.608;2023-09-08T05:44:57;10.65;;;4.65;;
82328;SDS011;72321;56.908;60.608;2023-09-08T05:49:48;8.43;;;4.00;;
82328;SDS011;72321;56.908;60.608;2023-09-08T05:52:13;5.97;;;3.42;;
82328;SDS011;72321;56.908;60.608;2023-09-08T05:54:39;6.03;;;3.25;;
82328;SDS011;72321;56.908;60.608;2023-09-08T05:57:05;7.45;;;3.92;;
82328;SDS011;72321;56.908;60.608;2023-09-08T05:59:31;16.35;;;5.30;;
82328;SDS011;72321;56.908;60.608;2023-09-08T06:01:56;9.25;;;3.67;;
82328;SDS011;72321;56.908;60.608;2023-09-08T06:04:21;7.70;;;3.72;;
82328;SDS011;72321;56.908;60.608;2023-09-08T06:09:12;7.13;;;3.83;;
82328;SDS011;72321;56.908;60.608;2023-09-08T06:11:39;5.05;;;3.13;;
82328;SDS011;72321;56.908;60.608;2023-09-08T06:14:05;6.10;;;3.42;;
82328;SDS011;72321;56.908;60.608;2023-09-08T06:16:30;6.15;;;3.10;;
82328;SDS011;72321;56.908;60.608;2023-09-08T06:21:21;6.33;;;3.00;;
82328;SDS011;72321;56.908;60.608;2023-09-08T06:26:12;14.80;;;3.78;;
82328;SDS011;72321;56.908;60.608;2023-09-08T06:28:38;5.15;;;2.95;;
82328;SDS011;72321;56.908;60.608;2023-09-08T06:31:04;8.48;;;3.25;;
82328;SDS011;72321;56.908;60.608;2023-09-08T06:33:30;6.72;;;3.58;;
82328;SDS011;72321;56.908;60.608;2023-09-08T06:35:55;10.93;;;4.13;;
82328;SDS011;72321;56.908;60.608;2023-09-08T06:40:46;15.80;;;3.63;;
82328;SDS011;72321;56.908;60.608;2023-09-08T06:45:39;6.30;;;3.50;;
82328;SDS011;72321;56.908;60.608;2023-09-08T06:48:05;8.50;;;3.35;;
82328;SDS011;72321;56.908;60.608;2023-09-08T06:52:55;7.33;;;3.73;;
82328;SDS011;72321;56.908;60.608;2023-09-08T06:57:46;6.97;;;2.83;;
82328;SDS011;72321;56.908;60.608;2023-09-08T07:02:37;7.67;;;3.67;;
82328;SDS011;72321;56.908;60.608;2023-09-08T07:07:33;6.78;;;3.60;;
82328;SDS011;72321;56.908;60.608;2023-09-08T07:09:58;6.18;;;3.40;;
82328;SDS011;72321;56.908;60.608;2023-09-08T07:12:23;7.07;;;3.65;;
82328;SDS011;72321;56.908;60.608;2023-09-08T07:14:49;7.00;;;3.15;;
82328;SDS011;72321;56.908;60.608;2023-09-08T07:17:14;12.35;;;3.53;;
82328;SDS011;72321;56.908;60.608;2023-09-08T07:19:40;6.72;;;3.17;;
82328;SDS011;72321;56.908;60.608;2023-09-08T07:22:05;6.53;;;3.53;;
82328;SDS011;72321;56.908;60.608;2023-09-08T07:24:31;8.75;;;3.58;;
82328;SDS011;72321;56.908;60.608;2023-09-08T07:26:56;7.00;;;2.75;;
82328;SDS011;72321;56.908;60.608;2023-09-08T07:29:22;4.60;;;2.75;;
82328;SDS011;72321;56.908;60.608;2023-09-08T07:31:47;11.02;;;3.30;;
82328;SDS011;72321;56.908;60.608;2023-09-08T07:34:13;6.40;;;3.20;;
82328;SDS011;72321;56.908;60.608;2023-09-08T07:36:38;8.77;;;3.63;;
82328;SDS011;72321;56.908;60.608;2023-09-08T07:39:03;6.85;;;3.15;;
82328;SDS011;72321;56.908;60.608;2023-09-08T07:41:29;6.25;;;3.22;;
82328;SDS011;72321;56.908;60.608;2023-09-08T07:43:54;6.10;;;3.53;;
82328;SDS011;72321;56.908;60.608;2023-09-08T07:48:45;7.93;;;3.07;;
82328;SDS011;72321;56.908;60.608;2023-09-08T07:53:35;6.63;;;3.07;;
82328;SDS011;72321;56.908;60.608;2023-09-08T07:58:26;7.90;;;3.05;;
82328;SDS011;72321;56.908;60.608;2023-09-08T08:00:51;6.38;;;3.17;;
82328;SDS011;72321;56.908;60.608;2023-09-08T08:05:42;6.07;;;2.67;;
82328;SDS011;72321;56.908;60.608;2023-09-08T08:10:34;6.47;;;2.53;;
82328;SDS011;72321;56.908;60.608;2023-09-08T08:13:00;10.60;;;3.30;;
82328;SDS011;72321;56.908;60.608;2023-09-08T08:15:34;5.13;;;2.95;;
82328;SDS011;72321;56.908;60.608;2023-09-08T08:17:59;8.45;;;2.90;;
82328;SDS011;72321;56.908;60.608;2023-09-08T08:20:25;4.93;;;2.88;;
82328;SDS011;72321;56.908;60.608;2023-09-08T08:25:15;4.87;;;2.53;;
82328;SDS011;72321;56.908;60.608;2023-09-08T08:30:06;4.70;;;3.07;;
82328;SDS011;72321;56.908;60.608;2023-09-08T08:34:57;6.57;;;3.00;;
82328;SDS011;72321;56.908;60.608;2023-09-08T08:39:47;5.77;;;2.63;;
82328;SDS011;72321;56.908;60.608;2023-09-08T08:44:39;4.13;;;2.95;;
82328;SDS011;72321;56.908;60.608;2023-09-08T08:47:06;7.22;;;3.10;;
82328;SDS011;72321;56.908;60.608;2023-09-08T08:49:31;6.70;;;3.20;;
82328;SDS011;72321;56.908;60.608;2023-09-08T08:54:23;4.93;;;2.70;;
82328;SDS011;72321;56.908;60.608;2023-09-08T08:56:49;6.70;;;2.88;;
82328;SDS011;72321;56.908;60.608;2023-09-08T08:59:14;6.47;;;3.22;;
82328;SDS011;72321;56.908;60.608;2023-09-08T09:04:05;6.37;;;3.27;;
82328;SDS011;72321;56.908;60.608;2023-09-08T09:08:57;5.70;;;3.42;;
82328;SDS011;72321;56.908;60.608;2023-09-08T09:13:48;5.77;;;3.00;;
82328;SDS011;72321;56.908;60.608;2023-09-08T09:18:53;5.83;;;2.67;;
82328;SDS011;72321;56.908;60.608;2023-09-08T09:21:18;6.88;;;2.83;;
82328;SDS011;72321;56.908;60.608;2023-09-08T09:23:43;6.13;;;2.80;;
82328;SDS011;72321;56.908;60.608;2023-09-08T09:26:09;5.63;;;2.63;;
82328;SDS011;72321;56.908;60.608;2023-09-08T09:28:45;4.93;;;2.90;;
82328;SDS011;72321;56.908;60.608;2023-09-08T09:31:11;7.10;;;2.80;;
82328;SDS011;72321;56.908;60.608;2023-09-08T09:33:37;7.93;;;2.90;;
82328;SDS011;72321;56.908;60.608;2023-09-08T09:38:28;6.50;;;3.10;;
82328;SDS011;72321;56.908;60.608;2023-09-08T09:43:20;5.55;;;3.03;;
82328;SDS011;72321;56.908;60.608;2023-09-08T09:48:11;7.80;;;2.77;;
82328;SDS011;72321;56.908;60.608;2023-09-08T09:53:13;5.50;;;3.22;;
82328;SDS011;72321;56.908;60.608;2023-09-08T09:55:43;4.40;;;2.40;;
82328;SDS011;72321;56.908;60.608;2023-09-08T09:58:09;4.93;;;2.60;;
82328;SDS011;72321;56.908;60.608;2023-09-08T10:00:35;5.25;;;2.72;;
82328;SDS011;72321;56.908;60.608;2023-09-08T10:03:02;9.38;;;2.75;;
82328;SDS011;72321;56.908;60.608;2023-09-08T10:05:28;6.88;;;3.05;;
82328;SDS011;72321;56.908;60.608;2023-09-08T10:07:54;10.57;;;2.95;;
82328;SDS011;72321;56.908;60.608;2023-09-08T10:12:45;5.17;;;3.03;;
82328;SDS011;72321;56.908;60.608;2023-09-08T10:15:11;4.68;;;2.90;;
82328;SDS011;72321;56.908;60.608;2023-09-08T10:17:37;6.75;;;3.25;;
82328;SDS011;72321;56.908;60.608;2023-09-08T10:20:02;5.35;;;2.72;;
82328;SDS011;72321;56.908;60.608;2023-09-08T10:22:36;6.22;;;2.55;;
82328;SDS011;72321;56.908;60.608;2023-09-08T10:25:03;5.78;;;2.30;;
82328;SDS011;72321;56.908;60.608;2023-09-08T10:27:30;5.50;;;2.25;;
82328;SDS011;72321;56.908;60.608;2023-09-08T10:29:57;4.40;;;2.28;;
82328;SDS011;72321;56.908;60.608;2023-09-08T10:32:25;10.13;;;2.95;;
82328;SDS011;72321;56.908;60.608;2023-09-08T10:34:51;10.48;;;3.03;;
82328;SDS011;72321;56.908;60.608;2023-09-08T10:37:20;7.90;;;3.20;;
82328;SDS011;72321;56.908;60.608;2023-09-08T10:39:46;5.40;;;2.92;;
82328;SDS011;72321;56.908;60.608;2023-09-08T10:47:24;11.63;;;3.25;;
82328;SDS011;72321;56.908;60.608;2023-09-08T10:49:52;6.82;;;3.25;;
82328;SDS011;72321;56.908;60.608;2023-09-08T10:52:22;7.18;;;3.03;;
82328;SDS011;72321;56.908;60.608;2023-09-08T10:57:14;5.93;;;3.40;;
82328;SDS011;72321;56.908;60.608;2023-09-08T11:02:04;10.70;;;3.30;;
82328;SDS011;72321;56.908;60.608;2023-09-08T11:04:30;12.05;;;3.30;;
82328;SDS011;72321;56.908;60.608;2023-09-08T11:06:58;5.70;;;3.35;;
82328;SDS011;72321;56.908;60.608;2023-09-08T11:09:23;16.95;;;3.75;;
82328;SDS011;72321;56.908;60.608;2023-09-08T11:11:49;6.03;;;2.70;;
82328;SDS011;72321;56.908;60.608;2023-09-08T11:14:15;10.30;;;3.03;;
82328;SDS011;72321;56.908;60.608;2023-09-08T11:16:40;7.10;;;2.92;;
82328;SDS011;72321;56.908;60.608;2023-09-08T11:21:31;5.38;;;2.70;;
82328;SDS011;72321;56.908;60.608;2023-09-08T11:24:01;5.72;;;2.92;;
82328;SDS011;72321;56.908;60.608;2023-09-08T11:26:27;4.90;;;2.45;;
82328;SDS011;72321;56.908;60.608;2023-09-08T11:28:53;7.07;;;2.88;;
82328;SDS011;72321;56.908;60.608;2023-09-08T11:31:19;4.25;;;2.30;;
82328;SDS011;72321;56.908;60.608;2023-09-08T11:33:45;9.00;;;3.40;;
82328;SDS011;72321;56.908;60.608;2023-09-08T11:36:14;5.97;;;3.17;;
82328;SDS011;72321;56.908;60.608;2023-09-08T11:38:39;8.40;;;3.05;;
82328;SDS011;72321;56.908;60.608;2023-09-08T11:41:06;6.28;;;3.28;;
82328;SDS011;72321;56.908;60.608;2023-09-08T11:43:31;6.10;;;2.83;;
82328;SDS011;72321;56.908;60.608;2023-09-08T11:45:58;5.30;;;2.55;;
82328;SDS011;72321;56.908;60.608;2023-09-08T11:48:24;5.72;;;2.88;;
82328;SDS011;72321;56.908;60.608;2023-09-08T11:50:52;5.97;;;2.33;;
82328;SDS011;72321;56.908;60.608;2023-09-08T11:53:21;5.78;;;2.90;;
82328;SDS011;72321;56.908;60.608;2023-09-08T11:55:47;7.40;;;2.50;;
82328;SDS011;72321;56.908;60.608;2023-09-08T11:58:13;4.75;;;2.35;;
82328;SDS011;72321;56.908;60.608;2023-09-08T12:00:38;8.85;;;3.03;;
82328;SDS011;72321;56.908;60.608;2023-09-08T12:03:11;5.20;;;2.40;;
82328;SDS011;72321;56.908;60.608;2023-09-08T12:05:37;5.07;;;2.75;;
82328;SDS011;72321;56.908;60.608;2023-09-08T12:08:04;6.35;;;2.70;;
82328;SDS011;72321;56.908;60.608;2023-09-08T12:10:42;7.63;;;3.50;;
82328;SDS011;72321;56.908;60.608;2023-09-08T12:13:08;6.38;;;2.85;;
82328;SDS011;72321;56.908;60.608;2023-09-08T12:15:37;7.45;;;3.47;;
82328;SDS011;72321;56.908;60.608;2023-09-08T12:18:06;7.35;;;3.47;;
82328;SDS011;72321;56.908;60.608;2023-09-08T12:20:33;8.75;;;4.13;;
82328;SDS011;72321;56.908;60.608;2023-09-08T12:22:59;8.02;;;3.40;;
82328;SDS011;72321;56.908;60.608;2023-09-08T12:25:26;6.68;;;3.33;;
82328;SDS011;72321;56.908;60.608;2023-09-08T12:27:53;6.95;;;3.38;;
82328;SDS011;72321;56.908;60.608;2023-09-08T12:30:19;5.88;;;2.75;;
82328;SDS011;72321;56.908;60.608;2023-09-08T12:32:45;6.05;;;2.88;;
82328;SDS011;72321;56.908;60.608;2023-09-08T12:35:11;5.07;;;2.15;;
82328;SDS011;72321;56.908;60.608;2023-09-08T12:37:38;6.50;;;3.10;;
82328;SDS011;72321;56.908;60.608;2023-09-08T12:40:03;6.05;;;2.95;;
82328;SDS011;72321;56.908;60.608;2023-09-08T12:42:29;8.27;;;3.25;;
82328;SDS011;72321;56.908;60.608;2023-09-08T12:44:54;5.22;;;2.38;;
82328;SDS011;72321;56.908;60.608;2023-09-08T12:47:20;7.15;;;2.78;;
82328;SDS011;72321;56.908;60.608;2023-09-08T12:49:45;7.93;;;3.30;;
82328;SDS011;72321;56.908;60.608;2023-09-08T12:52:11;7.45;;;3.17;;
82328;SDS011;72321;56.908;60.608;2023-09-08T12:54:36;7.25;;;2.47;;
82328;SDS011;72321;56.908;60.608;2023-09-08T12:57:02;7.68;;;3.03;;
82328;SDS011;72321;56.908;60.608;2023-09-08T12:59:27;5.03;;;2.47;;
82328;SDS011;72321;56.908;60.608;2023-09-08T13:01:53;5.75;;;2.70;;
82328;SDS011;72321;56.908;60.608;2023-09-08T13:04:18;5.53;;;2.67;;
82328;SDS011;72321;56.908;60.608;2023-09-08T13:06:44;6.82;;;2.78;;
82328;SDS011;72321;56.908;60.608;2023-09-08T13:09:09;6.50;;;2.65;;
82328;SDS011;72321;56.908;60.608;2023-09-08T13:11:35;6.90;;;2.35;;
82328;SDS011;72321;56.908;60.608;2023-09-08T13:14:00;5.85;;;2.17;;
82328;SDS011;72321;56.908;60.608;2023-09-08T13:16:25;7.25;;;3.03;;
82328;SDS011;72321;56.908;60.608;2023-09-08T13:18:51;5.53;;;2.63;;
82328;SDS011;72321;56.908;60.608;2023-09-08T13:21:16;4.43;;;2.67;;
82328;SDS011;72321;56.908;60.608;2023-09-08T13:23:42;5.85;;;3.17;;
82328;SDS011;72321;56.908;60.608;2023-09-08T13:26:07;7.88;;;3.83;;
82328;SDS011;72321;56.908;60.608;2023-09-08T13:30:58;8.23;;;4.10;;
82328;SDS011;72321;56.908;60.608;2023-09-08T13:35:48;9.80;;;3.50;;
82328;SDS011;72321;56.908;60.608;2023-09-08T13:38:13;7.50;;;3.60;;
82328;SDS011;72321;56.908;60.608;2023-09-08T13:40:39;6.25;;;3.85;;
82328;SDS011;72321;56.908;60.608;2023-09-08T13:43:06;7.90;;;3.25;;
82328;SDS011;72321;56.908;60.608;2023-09-08T13:45:31;9.13;;;5.60;;
82328;SDS011;72321;56.908;60.608;2023-09-08T13:47:56;10.43;;;4.47;;
82328;SDS011;72321;56.908;60.608;2023-09-08T13:50:22;13.88;;;6.82;;
82328;SDS011;72321;56.908;60.608;2023-09-08T13:52:48;12.52;;;4.82;;
82328;SDS011;72321;56.908;60.608;2023-09-08T13:55:14;7.25;;;5.28;;
82328;SDS011;72321;56.908;60.608;2023-09-08T13:57:39;25.08;;;9.98;;
82328;SDS011;72321;56.908;60.608;2023-09-08T14:00:05;17.75;;;8.23;;
82328;SDS011;72321;56.908;60.608;2023-09-08T14:02:30;14.52;;;7.55;;
82328;SDS011;72321;56.908;60.608;2023-09-08T14:04:56;10.65;;;6.30;;
82328;SDS011;72321;56.908;60.608;2023-09-08T14:07:21;27.23;;;13.90;;
82328;SDS011;72321;56.908;60.608;2023-09-08T14:09:46;8.35;;;4.13;;
82328;SDS011;72321;56.908;60.608;2023-09-08T14:12:12;10.65;;;6.05;;
82328;SDS011;72321;56.908;60.608;2023-09-08T14:14:37;15.00;;;5.97;;
82328;SDS011;72321;56.908;60.608;2023-09-08T14:17:02;9.07;;;4.35;;
82328;SDS011;72321;56.908;60.608;2023-09-08T14:19:28;11.55;;;3.67;;
82328;SDS011;72321;56.908;60.608;2023-09-08T14:21:53;13.50;;;4.32;;
82328;SDS011;72321;56.908;60.608;2023-09-08T14:24:19;8.18;;;4.13;;
82328;SDS011;72321;56.908;60.608;2023-09-08T14:26:44;9.05;;;3.97;;
82328;SDS011;72321;56.908;60.608;2023-09-08T14:29:10;6.70;;;4.25;;
82328;SDS011;72321;56.908;60.608;2023-09-08T14:31:35;11.50;;;4.18;;
82328;SDS011;72321;56.908;60.608;2023-09-08T14:34:00;8.65;;;3.90;;
82328;SDS011;72321;56.908;60.608;2023-09-08T14:36:26;11.40;;;5.70;;
82328;SDS011;72321;56.908;60.608;2023-09-08T14:38:51;10.93;;;4.18;;
82328;SDS011;72321;56.908;60.608;2023-09-08T14:41:17;8.48;;;4.32;;
82328;SDS011;72321;56.908;60.608;2023-09-08T14:43:42;11.15;;;4.45;;
82328;SDS011;72321;56.908;60.608;2023-09-08T14:46:07;9.20;;;4.97;;
82328;SDS011;72321;56.908;60.608;2023-09-08T14:48:33;14.07;;;5.32;;
82328;SDS011;72321;56.908;60.608;2023-09-08T14:50:59;11.20;;;5.35;;
82328;SDS011;72321;56.908;60.608;2023-09-08T14:53:24;16.88;;;6.40;;
82328;SDS011;72321;56.908;60.608;2023-09-08T14:55:50;12.15;;;5.38;;
82328;SDS011;72321;56.908;60.608;2023-09-08T14:58:15;10.52;;;4.72;;
82328;SDS011;72321;56.908;60.608;2023-09-08T15:00:41;7.45;;;4.00;;
82328;SDS011;72321;56.908;60.608;2023-09-08T15:03:07;7.53;;;3.90;;
82328;SDS011;72321;56.908;60.608;2023-09-08T15:05:32;7.00;;;3.83;;
82328;SDS011;72321;56.908;60.608;2023-09-08T15:07:58;5.72;;;4.05;;
82328;SDS011;72321;56.908;60.608;2023-09-08T15:10:24;9.65;;;3.85;;
82328;SDS011;72321;56.908;60.608;2023-09-08T15:12:49;7.00;;;4.55;;
82328;SDS011;72321;56.908;60.608;2023-09-08T15:15:14;8.60;;;4.07;;
82328;SDS011;72321;56.908;60.608;2023-09-08T15:20:06;6.37;;;3.27;;
82328;SDS011;72321;56.908;60.608;2023-09-08T15:22:31;9.23;;;3.97;;
82328;SDS011;72321;56.908;60.608;2023-09-08T15:24:57;7.30;;;2.63;;
82328;SDS011;72321;56.908;60.608;2023-09-08T15:27:22;5.90;;;2.88;;
82328;SDS011;72321;56.908;60.608;2023-09-08T15:29:48;9.38;;;4.07;;
82328;SDS011;72321;56.908;60.608;2023-09-08T15:32:13;8.40;;;4.47;;
82328;SDS011;72321;56.908;60.608;2023-09-08T15:34:38;11.13;;;4.23;;
82328;SDS011;72321;56.908;60.608;2023-09-08T15:37:04;16.20;;;5.60;;
82328;SDS011;72321;56.908;60.608;2023-09-08T15:39:29;10.65;;;4.43;;
82328;SDS011;72321;56.908;60.608;2023-09-08T15:41:55;6.15;;;3.83;;
82328;SDS011;72321;56.908;60.608;2023-09-08T15:44:20;11.10;;;5.40;;
82328;SDS011;72321;56.908;60.608;2023-09-08T15:46:45;12.20;;;7.43;;
82328;SDS011;72321;56.908;60.608;2023-09-08T15:49:11;16.92;;;6.57;;
82328;SDS011;72321;56.908;60.608;2023-09-08T15:51:36;26.35;;;14.93;;
82328;SDS011;72321;56.908;60.608;2023-09-08T15:54:02;10.98;;;5.28;;
82328;SDS011;72321;56.908;60.608;2023-09-08T15:56:29;10.07;;;4.90;;
82328;SDS011;72321;56.908;60.608;2023-09-08T15:58:54;11.52;;;4.80;;
82328;SDS011;72321;56.908;60.608;2023-09-08T16:01:19;8.60;;;4.07;;
82328;SDS011;72321;56.908;60.608;2023-09-08T16:03:45;7.70;;;3.65;;
82328;SDS011;72321;56.908;60.608;2023-09-08T16:06:10;7.90;;;4.60;;
82328;SDS011;72321;56.908;60.608;2023-09-08T16:08:37;11.32;;;4.57;;
82328;SDS011;72321;56.908;60.608;2023-09-08T16:11:02;8.15;;;4.22;;
82328;SDS011;72321;56.908;60.608;2023-09-08T16:13:30;8.75;;;4.28;;
82328;SDS011;72321;56.908;60.608;2023-09-08T16:15:55;10.40;;;5.47;;
82328;SDS011;72321;56.908;60.608;2023-09-08T16:18:20;7.53;;;3.97;;
82328;SDS011;72321;56.908;60.608;2023-09-08T16:20:46;10.40;;;4.82;;
82328;SDS011;72321;56.908;60.608;2023-09-08T16:23:11;12.80;;;5.30;;
82328;SDS011;72321;56.908;60.608;2023-09-08T16:25:36;8.55;;;4.25;;
82328;SDS011;72321;56.908;60.608;2023-09-08T16:28:02;13.70;;;4.60;;
82328;SDS011;72321;56.908;60.608;2023-09-08T16:30:28;12.18;;;4.30;;
82328;SDS011;72321;56.908;60.608;2023-09-08T16:32:54;9.65;;;4.30;;
82328;SDS011;72321;56.908;60.608;2023-09-08T16:35:19;9.65;;;3.65;;
82328;SDS011;72321;56.908;60.608;2023-09-08T16:37:45;7.88;;;3.75;;
82328;SDS011;72321;56.908;60.608;2023-09-08T16:40:10;10.20;;;4.82;;
82328;SDS011;72321;56.908;60.608;2023-09-08T16:42:35;11.30;;;3.60;;
82328;SDS011;72321;56.908;60.608;2023-09-08T16:45:01;9.15;;;4.38;;
82328;SDS011;72321;56.908;60.608;2023-09-08T16:47:27;8.02;;;3.75;;
82328;SDS011;72321;56.908;60.608;2023-09-08T16:49:52;7.85;;;3.45;;
82328;SDS011;72321;56.908;60.608;2023-09-08T16:52:19;7.07;;;3.95;;
82328;SDS011;72321;56.908;60.608;2023-09-08T16:54:44;6.63;;;3.35;;
82328;SDS011;72321;56.908;60.608;2023-09-08T16:57:11;9.70;;;3.75;;
82328;SDS011;72321;56.908;60.608;2023-09-08T16:59:36;8.93;;;4.57;;
82328;SDS011;72321;56.908;60.608;2023-09-08T17:02:02;14.27;;;4.70;;
82328;SDS011;72321;56.908;60.608;2023-09-08T17:04:27;7.72;;;4.18;;
82328;SDS011;72321;56.908;60.608;2023-09-08T17:06:52;7.63;;;4.60;;
82328;SDS011;72321;56.908;60.608;2023-09-08T17:09:18;11.02;;;4.55;;
82328;SDS011;72321;56.908;60.608;2023-09-08T17:11:43;11.32;;;5.13;;
82328;SDS011;72321;56.908;60.608;2023-09-08T17:14:08;11.20;;;4.40;;
82328;SDS011;72321;56.908;60.608;2023-09-08T17:16:34;9.30;;;4.13;;
82328;SDS011;72321;56.908;60.608;2023-09-08T17:18:59;7.90;;;4.45;;
82328;SDS011;72321;56.908;60.608;2023-09-08T17:21:25;8.82;;;3.83;;
82328;SDS011;72321;56.908;60.608;2023-09-08T17:23:50;10.10;;;4.50;;
82328;SDS011;72321;56.908;60.608;2023-09-08T17:26:15;7.80;;;4.18;;
82328;SDS011;72321;56.908;60.608;2023-09-08T17:28:41;10.75;;;4.55;;
82328;SDS011;72321;56.908;60.608;2023-09-08T17:31:06;10.82;;;4.80;;